Flag for USA

Past Weather in 43°13'21.8"N, 88°06'13.2"W, USA — Yesterday and Last 2 Weeks

Currently: 45 °F. Sunny. (Weather station: Milwaukee / Timmerman, USA). See more current weather

Past Weather in 43°13'21.8"N, 88°06'13.2"W — Graph

°F

43°13'21.8"N, 88°06'13.2"W Temperature Yesterday

Maximum temperature yesterday: 52 °F (at 11:45 am)
Minimum temperature yesterday: 32 °F (at 4:15 am)
Average temperature yesterday: 38 °F

High & Low Weather Summary for the Past Weeks

 TemperatureHumidityPressure
High79 °F (Apr 6, 2:45 pm)94% (Apr 10, 7:45 am)30.53 "Hg (Apr 10, 7:45 am)
Low32 °F (Apr 14, 4:15 am)16% (Apr 4, 3:45 pm)29.30 "Hg (Apr 11, 1:55 am)
Average48 °F66%29.86 "Hg
* Reported Apr 2 8:45 am — Apr 17 8:45 am, 43°13'21.8"N, 88°06'13.2"W. Weather by CustomWeather, © 2021

Note: Actual official high and low records may vary slightly from our data, if they occured in-between our weather recording intervals... More about our weather records

43°13'21.8"N, 88°06'13.2"W Weather History for the Previous 24 Hours

Scroll right to see more
 ConditionsComfort  
Time TempWeatherWind HumidityBarometerVisibility
8:45 am
Sat, Apr 17
41 °FSunny.6 mph61%30.00 "Hg10 mi
7:45 am37 °FSunny.5 mph70%29.99 "Hg10 mi
7:15 am34 °FSunny.5 mph87%29.99 "Hg10 mi
6:55 am32 °FSunny.5 mph93%29.99 "Hg10 mi
6:35 am32 °FSunny.No wind87%29.98 "Hg10 mi
6:15 am32 °FSunny.5 mph87%29.98 "Hg10 mi
5:55 am32 °FClear.5 mph87%29.97 "Hg10 mi
5:35 am32 °FClear.5 mph87%29.97 "Hg10 mi
5:15 am32 °FClear.5 mph87%29.98 "Hg10 mi
4:55 am32 °FClear.3 mph87%29.98 "Hg10 mi
4:35 am32 °FClear.6 mph87%29.98 "Hg10 mi
4:15 am32 °FClear.3 mph87%29.98 "Hg10 mi
3:35 am32 °FClear.5 mph87%29.98 "Hg10 mi
3:15 am34 °FClear.No wind81%29.98 "Hg10 mi
2:55 am32 °FClear.6 mph87%29.97 "Hg10 mi
2:35 am32 °FClear.5 mph87%29.98 "Hg10 mi
2:15 am34 °FClear.3 mph81%29.98 "Hg10 mi
1:55 am34 °FClear.3 mph81%29.98 "Hg10 mi
1:35 am34 °FClear.No wind81%29.98 "Hg10 mi
1:15 am34 °FClear.5 mph81%29.99 "Hg10 mi
12:55 am34 °FClear.3 mph81%29.99 "Hg10 mi
12:35 am34 °FClear.No wind81%29.99 "Hg10 mi
12:15 am34 °FClear.3 mph81%29.98 "Hg10 mi
11:55 pm
Fri, Apr 16
36 °FClear.3 mph81%29.98 "Hg10 mi
11:35 pm36 °FClear.3 mph75%29.99 "Hg10 mi
11:15 pm36 °FClear.3 mph81%29.99 "Hg10 mi
10:55 pm36 °FClear.3 mph81%29.99 "Hg10 mi
10:35 pm37 °FClear.No wind75%30.00 "Hg10 mi
10:15 pm37 °FClear.No wind75%30.00 "Hg10 mi
9:55 pm37 °FClear.No wind75%30.00 "Hg10 mi
9:35 pm37 °FClear.No wind75%30.00 "Hg10 mi
9:15 pm36 °FClear.No wind75%29.99 "Hg10 mi
8:55 pm39 °FClear.No wind70%29.98 "Hg10 mi
7:45 pm41 °FClear.3 mph66%29.98 "Hg10 mi
6:45 pm43 °FSunny.5 mph61%29.98 "Hg10 mi
5:45 pm43 °FSunny.6 mph61%29.98 "Hg10 mi
4:45 pm45 °FSunny.7 mph57%29.98 "Hg10 mi
3:45 pm45 °FSunny.7 mph61%29.97 "Hg10 mi
2:45 pm46 °FSunny.9 mph57%29.97 "Hg10 mi
1:45 pm46 °FSunny.9 mph57%29.97 "Hg10 mi
12:45 pm48 °FSunny.9 mph58%29.98 "Hg10 mi
11:45 am52 °FSunny.9 mph41%29.99 "Hg10 mi
10:50 am48 °FSunny.5 mph50%30.01 "Hg10 mi
Weather by CustomWeather, © 2021

See weather overview